Lake Wohlford (1030) Station Data

Red Flag Warning: No
Fire Weather Zone: 250
SDGE Region: North East
Lat/Lon: 33.178/-116.995

Observations

Time Wind Speed/Gust Temp(F) RH Fuel Moist Fuel Temp(F) Dewpt(F) Tmax(F) Tmin(F) Accum Precip 10-min Precip SL Press(mb)
6/27 4:50pm 243 8 G 12 87° 20% - - 41° 93.2° 76° - - -
6/27 4:40pm 243 7 G 11 87° 21% - - 42° 93.2° 76° - - -
6/27 4:30pm 252 8 G 14 88° 21% - - 42° 93.2° 76° - - -
6/27 4:20pm 245 8 G 13 87° 20% - - 42° 93.2° 76° - - -
6/27 4:10pm 243 9 G 15 88° 20% - - 42° 93.2° 76° - - -
6/27 4:00pm 241 9 G 15 88° 21% - - 43° 93.2° 76° - - -
6/27 3:50pm 249 10 G 15 88° 20% - - 42° 93.2° 76° - - -
6/27 3:40pm 253 9 G 15 88° 19% - - 41° 93.2° 76° - - -
6/27 3:30pm 259 9 G 14 88° 21% - - 43° 93.2° 76° - - -
6/27 3:20pm 254 10 G 15 88° 21% - - 43° 93.2° 76° - - -
6/27 3:10pm 255 11 G 16 88° 20% - - 42° 93.2° 76° - - -
6/27 3:00pm 255 11 G 15 88° 21% - - 43° 93.2° 76° - - -
6/27 2:50pm 259 10 G 16 89° 21% - - 43° 93.2° 76° - - -
6/27 2:40pm 263 10 G 18 89° 20% - - 43° 93.2° 76° - - -
6/27 2:30pm 251 12 G 17 89° 19% - - 42° 93.2° 76° - - -
6/27 2:20pm 249 12 G 17 90° 19% - - 41° 93.2° 76° - - -
6/27 2:10pm 251 11 G 17 90° 16% - - 38° 93.2° 76° - - -
6/27 2:00pm 248 11 G 20 90° 15% - - 37° 93.2° 76° - - -
6/27 1:50pm 252 11 G 19 91° 14% - - 34° 93.2° 76° - - -
6/27 1:40pm 255 12 G 18 91° 13% - - 33° 93.2° 76° - - -
6/27 1:30pm 246 11 G 16 91° 12% - - 31° 93.2° 76° - - -
6/27 1:20pm 246 12 G 21 92° 13% - - 34° 93.2° 76° - - -
6/27 1:10pm 245 10 G 17 91° 16% - - 38° 93.2° 76° - - -
6/27 1:00pm 250 11 G 16 91° 17% - - 40° 93.2° 76° - - -
6/27 12:50pm 253 10 G 17 91° 17% - - 41° 93.2° 76° - - -
6/27 12:40pm 241 10 G 16 92° 17% - - 41° 93.2° 76° - - -
6/27 12:30pm 253 9 G 15 92° 14% - - 36° 93.2° 76° - - -
6/27 12:20pm 235 10 G 16 92° 12% - - 31° 93.1° 76° - - -
6/27 12:10pm 242 10 G 17 92° 9% - - 26° 93.1° 76° - - -
6/27 12:00pm 237 9 G 15 92° 9% - - 26° 93.1° 76° - - -
6/27 11:50am 249 7 G 13 92° 9% - - 26° 93° 76° - - -
6/27 11:40am 250 9 G 14 92° 9% - - 25° 92.4° 76° - - -
6/27 11:30am 248 7 G 13 91° 9% - - 25° 92.3° 76° - - -
6/27 11:20am 227 7 G 12 91° 9% - - 25° 91.9° 76° - - -
6/27 11:10am 219 6 G 11 91° 9% - - 24° 91.7° 76° - - -
6/27 11:00am 220 5 G 9 91° 9% - - 25° 91.7° 76° - - -
6/27 10:50am 220 4 G 7 91° 9% - - 24° 91.6° 76° - - -
6/27 10:40am 208 4 G 8 91° 9% - - 23° 90.8° 76° - - -
6/27 10:30am 231 5 G 8 89° 9% - - 24° 90.3° 76° - - -
6/27 10:20am 243 5 G 8 89° 10% - - 25° 89.7° 76° - - -
6/27 10:10am 242 6 G 8 88° 10% - - 25° 88.4° 76° - - -
6/27 10:00am 279 5 G 7 87° 10% - - 23° 87.8° 76° - - -
6/27 9:50am 288 5 G 7 87° 10% - - 24° 87.2° 76° - - -
6/27 9:40am 287 5 G 7 86° 11% - - 25° 87.2° 76° - - -
6/27 9:30am 286 4 G 6 86° 11% - - 26° 86.5° 76° - - -
6/27 9:20am 284 4 G 7 85° 11% - - 25° 86.5° 76° - - -
6/27 9:10am 278 4 G 6 85° 11% - - 26° 86.5° 76° - - -
6/27 9:00am 265 3 G 6 85° 12% - - 28° 86.5° 76° - - -
6/27 8:50am 266 2 G 4 85° 12% - - 27° 86.5° 76° - - -
6/27 8:40am 231 2 G 3 85° 13% - - 29° 86.5° 76° - - -
6/27 8:30am 225 1 G 3 86° 15% - - 33° 86.5° 76° - - -
6/27 8:20am 74 1 G 3 86° 12% - - 28° 86.5° 76° - - -
6/27 8:10am 99 2 G 4 85° 13% - - 28° 85.2° 76° - - -
6/27 8:00am 89 2 G 3 85° 14% - - 30° 85.2° 76° - - -
6/27 7:50am 84 2 G 3 84° 14% - - 29° 84.3° 76° - - -
6/27 7:40am 93 2 G 3 83° 13% - - 27° 83.4° 76° - - -
6/27 7:30am 85 2 G 3 81° 14% - - 27° 82.2° 76° - - -
6/27 7:20am 95 3 G 4 79° 15% - - 26° 80.2° 76° - - -
6/27 7:10am 93 4 G 5 78° 13% - - 24° 80.2° 76° - - -
6/27 7:00am 92 4 G 5 77° 13% - - 22° 80.2° 76° - - -
6/27 6:50am 98 4 G 5 77° 13% - - 22° 80.2° 76° - - -
6/27 6:40am 92 4 G 5 77° 12% - - 21° 80.2° 76° - - -
6/27 6:30am 89 4 G 4 78° 11% - - 20° 80.2° 76.5° - - -
6/27 6:20am 89 4 G 4 78° 11% - - 20° 80.2° 76.5° - - -
6/27 6:10am 80 4 G 5 78° 11% - - 20° 80.2° 76.5° - - -
6/27 6:00am 83 4 G 5 78° 11% - - 20° 80.2° 76.5° - - -
6/27 5:50am 73 5 G 5 78° 11% - - 20° 80.2° 76.5° - - -
6/27 5:40am 81 5 G 6 77° 12% - - 21° 80.2° 76.5° - - -
6/27 5:30am 88 5 G 5 77° 12% - - 21° 80.2° 76.5° - - -
6/27 5:20am 86 4 G 5 78° 12% - - 21° 80.2° 76.5° - - -
6/27 5:10am 85 4 G 4 78° 12% - - 21° 80.2° 76.5° - - -
6/27 5:00am 83 4 G 5 78° 12% - - 21° 80.2° 76.5° - - -
6/27 4:50am 85 4 G 5 78° 12% - - 22° 80.2° 76.5° - - -
6/27 4:40am 85 5 G 5 78° 12% - - 22° 80.2° 76.5° - - -
6/27 4:30am 88 4 G 5 78° 12% - - 22° 80.2° 76.5° - - -
6/27 4:20am 87 4 G 4 79° 12% - - 22° 80.2° 76.5° - - -
6/27 4:10am 92 4 G 5 77° 13% - - 22° 80.2° 76.5° - - -
6/27 4:00am 94 4 G 4 78° 12% - - 22° 80.2° 76.7° - - -
6/27 3:50am 86 3 G 4 79° 12% - - 22° 80.2° 77.4° - - -
6/27 3:40am 87 4 G 5 79° 12% - - 23° 80.2° 77.4° - - -
6/27 3:30am 78 5 G 5 79° 12% - - 23° 80.2° 77.4° - - -
6/27 3:20am 76 5 G 6 79° 12% - - 23° 80.2° 77.4° - - -
6/27 3:10am 90 5 G 5 78° 13% - - 24° 80.2° 77.4° - - -
6/27 3:00am 94 5 G 6 78° 13% - - 24° 80.2° 77.4° - - -
6/27 2:50am 95 5 G 6 78° 13% - - 24° 80.2° 77.4° - - -
6/27 2:40am 86 5 G 5 79° 13% - - 24° 80.2° 77.4° - - -
6/27 2:30am 80 5 G 6 80° 13% - - 24° 80.2° 77.4° - - -
6/27 2:20am 78 6 G 7 79° 13% - - 25° 79.8° 77.4° - - -
6/27 2:10am 83 5 G 7 78° 14% - - 25° 79.8° 77.4° - - -
6/27 2:00am 84 6 G 7 78° 14% - - 25° 79.8° 77.5° - - -
6/27 1:50am 81 6 G 8 79° 14% - - 25° 79.8° 77.6° - - -
6/27 1:40am 75 7 G 8 79° 14% - - 25° 79.8° 77.6° - - -
6/27 1:30am 80 6 G 7 78° 14% - - 26° 79.3° 77.6° - - -
6/27 1:20am 85 6 G 7 78° 15% - - 27° 79.3° 77.6° - - -
6/27 1:10am 82 6 G 7 79° 15% - - 27° 79.3° 77.8° - - -
6/27 1:00am 74 7 G 8 79° 15% - - 27° 79.3° 77.8° - - -
6/27 12:50am 77 7 G 9 78° 16% - - 28° 78.9° 77.8° - - -
6/27 12:40am 73 7 G 8 78° 16% - - 28° 78.9° 77.8° - - -
6/27 12:30am 75 7 G 9 78° 17% - - 29° 78.5° 77.8° - - -
6/27 12:20am 74 8 G 10 78° 18% - - 30° 78.3° 77.8° - - -
6/27 12:10am 78 7 G 9 78° 18% - - 31° 78.3° 77.8° - - -
6/27 12:00am 77 7 G 9 78° 18% - - 31° 99.1° 74.5° - - -
6/26 11:50pm 71 7 G 10 78° 18% - - 31° 99.1° 74.5° - - -
6/26 11:40pm 73 7 G 11 77° 19% - - 32° 99.1° 74.5° - - -
6/26 11:30pm 69 7 G 8 77° 21% - - 34° 99.1° 74.5° - - -
6/26 11:20pm 74 8 G 11 77° 22% - - 35° 99.1° 74.5° - - -
6/26 11:10pm 85 6 G 8 75° 23% - - 35° 99.1° 74.5° - - -
6/26 11:00pm 92 6 G 7 76° 22% - - 35° 99.1° 75° - - -
6/26 10:50pm 78 6 G 7 77° 22% - - 35° 99.1° 76.2° - - -
6/26 10:40pm 78 6 G 8 77° 22% - - 36° 99.1° 76.2° - - -
6/26 10:30pm 75 6 G 7 78° 21% - - 35° 99.1° 77.3° - - -
6/26 10:20pm 76 3 G 5 78° 21% - - 35° 99.1° 77.6° - - -
6/26 10:10pm 341 0 G 1 79° 24% - - 39° 99.1° 78.1° - - -
6/26 10:00pm 311 1 G 3 79° 24% - - 40° 99.1° 78.4° - - -
6/26 9:50pm 320 3 G 3 80° 23% - - 39° 99.1° 78.4° - - -
6/26 9:40pm 303 1 G 3 81° 18% - - 34° 99.1° 78.4° - - -
6/26 9:30pm 125 1 G 2 82° 14% - - 28° 99.1° 78.4° - - -
6/26 9:20pm 99 2 G 3 82° 14% - - 28° 99.1° 78.4° - - -
6/26 9:10pm 34 0 G 1 83° 14% - - 28° 99.1° 78.4° - - -
6/26 9:00pm 81 0 G 1 84° 13% - - 27° 99.1° 78.4° - - -
6/26 8:50pm 119 1 G 2 84° 12% - - 26° 99.1° 78.4° - - -
6/26 8:40pm 315 2 G 2 86° 12% - - 27° 99.1° 78.4° - - -
6/26 8:30pm 319 3 G 4 86° 12% - - 26° 99.1° 78.4° - - -
6/26 8:20pm 301 2 G 3 85° 11% - - 25° 99.1° 78.4° - - -
6/26 8:10pm 299 2 G 6 86° 11% - - 25° 99.1° 78.4° - - -
6/26 8:00pm 311 4 G 7 87° 10% - - 24° 99.1° 78.4° - - -
6/26 7:50pm 300 4 G 6 88° 9% - - 22° 99.1° 78.4° - - -
6/26 7:40pm 300 4 G 6 89° 8% - - 21° 99.1° 78.4° - - -
6/26 7:30pm 293 4 G 8 90° 8% - - 20° 99.1° 78.4° - - -
6/26 7:20pm 283 6 G 8 90° 7% - - 18° 99.1° 78.4° - - -
6/26 7:10pm 286 6 G 9 91° 7% - - 19° 99.1° 78.4° - - -
6/26 7:00pm 307 8 G 11 91° 7% - - 18° 99.1° 78.4° - - -
6/26 6:50pm 310 9 G 14 92° 7% - - 18° 99.1° 78.4° - - -
6/26 6:40pm 292 8 G 12 93° 7% - - 20° 99.1° 78.4° - - -
6/26 6:30pm 272 9 G 13 93° 7% - - 21° 99.1° 78.4° - - -
6/26 6:20pm 274 9 G 14 93° 7% - - 21° 99.1° 78.4° - - -
6/26 6:10pm 276 9 G 15 94° 7% - - 21° 99.1° 78.4° - - -
6/26 6:00pm 277 9 G 13 95° 7% - - 21° 99.1° 78.4° - - -
6/26 5:50pm 279 8 G 12 95° 7% - - 21° 99.1° 78.4° - - -
6/26 5:40pm 284 8 G 12 96° 7% - - 21° 99.1° 78.4° - - -
6/26 5:30pm 294 8 G 13 96° 7% - - 21° 99.1° 78.4° - - -
6/26 5:20pm 294 8 G 14 96° 7% - - 22° 99.1° 78.4° - - -
6/26 5:10pm 299 9 G 14 96° 7% - - 22° 99.1° 78.4° - - -
6/26 5:00pm 281 8 G 12 97° 7% - - 23° 99.1° 78.4° - - -
6/26 4:50pm 276 9 G 14 97° 7% - - 23° 99.1° 78.4° - - -
6/26 4:40pm 260 7 G 13 97° 11% - - 35° 99.1° 78.4° - - -
6/26 4:30pm 249 9 G 14 97° 12% - - 35° 99.1° 78.4° - - -
6/26 4:20pm 240 10 G 18 97° 12% - - 35° 99.1° 78.4° - - -
6/26 4:10pm 244 12 G 18 97° 12% - - 36° 99.1° 78.4° - - -
6/26 4:00pm 247 10 G 15 98° 11% - - 35° 99.1° 78.4° - - -
6/26 3:50pm 248 11 G 18 97° 11% - - 34° 99.1° 78.4° - - -
6/26 3:40pm 251 11 G 17 97° 11% - - 33° 99.1° 78.4° - - -
6/26 3:30pm 251 12 G 17 97° 11% - - 34° 99.1° 78.4° - - -
6/26 3:20pm 247 12 G 17 98° 11% - - 34° 99.1° 78.4° - - -
6/26 3:10pm 243 11 G 18 98° 10% - - 33° 99.1° 78.4° - - -
6/26 3:00pm 245 11 G 17 98° 11% - - 34° 99.1° 78.4° - - -
6/26 2:50pm 246 12 G 17 98° 11% - - 35° 99.1° 78.4° - - -
6/26 2:40pm 247 13 G 19 98° 11% - - 36° 99.1° 78.4° - - -
6/26 2:30pm 242 12 G 19 98° 13% - - 38° 98.1° 78.4° - - -
6/26 2:20pm 231 12 G 18 98° 12% - - 36° 98° 78.4° - - -
6/26 2:10pm 229 12 G 19 97° 14% - - 40° 97.1° 78.4° - - -
6/26 2:00pm 222 11 G 17 96° 16% - - 43° 96.8° 78.4° - - -
6/26 1:50pm 221 11 G 15 96° 16% - - 42° 96.8° 78.4° - - -
6/26 1:40pm 221 10 G 16 95° 17% - - 44° 96.8° 78.4° - - -
6/26 1:30pm 233 10 G 14 96° 18% - - 45° 96.8° 78.4° - - -
6/26 1:20pm 243 10 G 15 96° 18% - - 46° 96.8° 78.4° - - -
6/26 1:10pm 232 11 G 18 95° 19% - - 47° 96.2° 78.4° - - -
6/26 1:00pm 230 10 G 16 95° 20% - - 48° 96.1° 78.4° - - -
6/26 12:50pm 212 8 G 15 95° 22% - - 50° 96.1° 78.4° - - -
6/26 12:40pm 221 7 G 13 95° 22% - - 50° 96.1° 78.4° - - -
6/26 12:30pm 223 6 G 12 95° 22% - - 50° 96.1° 78.4° - - -
6/26 12:20pm 228 7 G 12 95° 20% - - 48° 95.9° 78.4° - - -
6/26 12:10pm 233 8 G 11 94° 19% - - 46° 95.9° 78.4° - - -
6/26 12:00pm 240 8 G 14 95° 19% - - 47° 95.9° 78.4° - - -
6/26 11:50am 235 8 G 13 95° 18% - - 45° 95.9° 78.4° - - -
6/26 11:40am 234 8 G 14 95° 16% - - 42° 95.9° 78.4° - - -
6/26 11:30am 237 8 G 13 94° 15% - - 40° 95.3° 78.4° - - -
6/26 11:20am 244 8 G 14 95° 14% - - 39° 95.3° 78.4° - - -
6/26 11:10am 267 6 G 13 95° 13% - - 37° 95.3° 78.4° - - -
6/26 11:00am 253 7 G 10 94° 14% - - 37° 95.2° 78.4° - - -
6/26 10:50am 250 6 G 11 94° 14% - - 37° 94.4° 78.4° - - -
6/26 10:40am 248 6 G 9 94° 14% - - 37° 94.2° 78.4° - - -
6/26 10:30am 253 5 G 8 94° 15% - - 39° 94.2° 78.4° - - -
6/26 10:20am 261 5 G 7 93° 15% - - 39° 94.2° 78.4° - - -
6/26 10:10am 278 5 G 8 93° 15% - - 38° 93.3° 78.4° - - -
6/26 10:00am 268 5 G 8 92° 14% - - 37° 93.3° 78.4° - - -
6/26 9:50am 276 4 G 6 93° 15% - - 37° 93.3° 78.4° - - -
6/26 9:40am 266 4 G 7 93° 14% - - 36° 93.3° 78.4° - - -
6/26 9:30am 274 3 G 5 93° 13% - - 35° 93.2° 78.4° - - -
6/26 9:20am 275 3 G 4 92° 13% - - 34° 92.6° 78.4° - - -
6/26 9:10am 259 3 G 4 92° 13% - - 35° 92.6° 78.4° - - -
6/26 9:00am 232 2 G 4 92° 13% - - 35° 92.4° 78.4° - - -
6/26 8:50am 219 2 G 3 92° 13% - - 34° 92° 78.4° - - -
6/26 8:40am 199 2 G 3 92° 15% - - 37° 92° 78.4° - - -
6/26 8:30am 116 2 G 3 91° 14% - - 36° 91.8° 78.4° - - -
6/26 8:20am 95 2 G 3 91° 14% - - 35° 91.8° 78.4° - - -
6/26 8:10am 86 2 G 4 90° 15% - - 36° 90.9° 78.4° - - -
6/26 8:00am 79 3 G 5 88° 16% - - 37° 89° 78.4° - - -
6/26 7:50am 82 4 G 5 87° 18% - - 38° 87.6° 78.4° - - -
6/26 7:40am 88 4 G 6 87° 17% - - 36° 86.8° 78.4° - - -
6/26 7:30am 92 3 G 4 85° 17% - - 34° 86.2° 78.4° - - -
6/26 7:20am 95 4 G 5 85° 16% - - 34° 85° 78.4° - - -
6/26 7:10am 85 4 G 4 85° 16% - - 33° 84.8° 78.4° - - -
6/26 7:00am 75 5 G 6 84° 15% - - 32° 84.8° 78.4° - - -
6/26 6:50am 80 4 G 5 84° 16% - - 32° 84.8° 78.4° - - -
6/26 6:40am 79 5 G 5 84° 14% - - 31° 84.8° 78.4° - - -
6/26 6:30am 83 5 G 7 82° 16% - - 31° 83.9° 78.4° - - -
6/26 6:20am 84 6 G 7 81° 17% - - 31° 83.9° 78.4° - - -
6/26 6:10am 90 6 G 7 80° 17% - - 32° 83.9° 78.4° - - -
6/26 6:00am 89 4 G 5 82° 16% - - 31° 83.9° 78.4° - - -